Lula, Georgia
Current Conditions -  °F | °C
As of 11:53 AM on Wednesday 22 Oct 2014 (Local Time) from KGVL Reporting Station
Clear Clear  
Wind Chill: 60°   Ceiling: Unl
Heat Index: 60°   Visibility: 10mi
Dew Point: 37°   Wind: 3mph
Humidity: 42%   Direction: NA
Pressure: 30.14"   Gusts: NA
Location:  34.39°N, 83.67°W
Report Text: KGVL 221553Z AUTO VRB03KT 10SM CLR 16/03 A3014 RMK AO2 SLP199 T01560028
Loading
Personal Weather Stations






























Interactive Weather Map
Tropical Storm Tracking
New forecast layout! Learn more

10-Day Weather Forecast

Advertisements
Track Severe Weather on mobile